Aviation Digital Data Service (ADDS)

Output produced by METARs form (0134 UTC 20 July 2019)
found at http://www.aviationweather.gov/metar/data/
 
LETO 200100Z 17006KT 140V210 CAVOK 28/06 Q1014 NOSIG
TAF LETO 192300Z 2000/2024 VRB05KT CAVOK TX39/2015Z TN21/2005Z 
     TEMPO 2000/2002 16010KT 
     TEMPO 2013/2018 22010KT
       
LEZG 200130Z 11011KT CAVOK 24/18 Q1013
TAF LEZG 192300Z 2000/2024 10013KT CAVOK TX38/2012Z TN21/2006Z 
     BECMG 2020/2022 32011KT
       
LERT 200100Z 00000KT CAVOK 23/18 Q1012 NOSIG
TAF LERT 192300Z 2000/2009 14006KT CAVOK
       
LELC 200130Z AUTO 36008KT 9999 NCD 25/21 Q1013
TAF LELC 192300Z 2000/2024 04013KT CAVOK TX30/2013Z TN23/2005Z 
     PROB40 
     TEMPO 2010/2018 06016G26KT
       
LEAB 200100Z 16008KT CAVOK 22/13 Q1017 NOSIG
TAF LEAB 192300Z 2000/2009 16008KT CAVOK
       
TAF LEBZ 192300Z 2000/2024 28008KT CAVOK TX38/2016Z TN19/2006Z
       
LEMO 200100Z 16003KT CAVOK 24/14 Q1012 NOSIG
TAF LEMO 192300Z 2000/2009 VRB02KT CAVOK
       
LESA 200130Z AUTO 00000KT 9999 NCD 17/13 Q1016
TAF LESA 192300Z 2000/2024 VRB05KT CAVOK TX33/2015Z TN15/2005Z 
     TEMPO 2012/2018 26010KT
       
GCLP 200130Z 36022KT 9999 FEW020 SCT030 22/18 Q1016 NOSIG
TAF GCLP 192000Z 1921/2021 36021KT 9999 SCT035 TX26/2014Z TN22/2005Z
       
LIED 200055Z 04002KT CAVOK 21/18 Q1016 RMK SKC VIS MIN 9999 WIND THR35 03003KT WIND THR17 /////KT BLU
TAF LIED 192000Z 1921/2006 35005KT CAVOK
       
LIPR 200120Z AUTO 20003KT 9999 NCD 20/17 Q1016
TAF LIPR 192300Z 2000/2009 VRB05KT CAVOK